| Ora | Descriere | Temp | Se simte | Precipitatii | Umiditate | Vant |
|---|---|---|---|---|---|---|
| 00:00 | Senin | 15.4° | 15.4° | 0% | 67% | SSW 7.9 KM/H |
| 01:00 | Senin | 14.9° | 15.3° | 0% | 69% | S 5 KM/H |
| 02:00 | Senin | 14.5° | 14.5° | 0% | 69% | ESE 2.2 KM/H |
| 03:00 | Senin | 14.1° | 14.1° | 0% | 70% | NE 6.1 KM/H |
| 04:00 | Senin | 13.4° | 13.1° | 0% | 73% | NE 7.6 KM/H |
| 05:00 | Senin | 12.9° | 12.5° | 0% | 76% | ENE 7.9 KM/H |
| 06:00 | Senin | 12.5° | 12.1° | 0% | 78% | ENE 7.6 KM/H |
| 07:00 | Senin | 13.1° | 12.8° | 0% | 79% | ENE 7.2 KM/H |
| 08:00 | Senin | 14.7° | 14.8° | 0% | 71% | E 6.1 KM/H |
| 09:00 | Senin | 16.7° | 16.7° | 0% | 63% | ESE 6.5 KM/H |
| 10:00 | Senin | 18.6° | 18.6° | 0% | 56% | SSE 6.1 KM/H |
| 11:00 | Senin | 20.3° | 20.3° | 0% | 51% | S 5.8 KM/H |
| 12:00 | Senin | 21.8° | 21.8° | 0% | 47% | SSW 5.8 KM/H |
| 13:00 | Senin | 23.1° | 24.5° | 0% | 43% | SW 5.4 KM/H |
| 14:00 | Senin | 23.9° | 24.7° | 0% | 39% | SW 6.5 KM/H |
| 15:00 | Senin | 24.3° | 24.8° | 0% | 38% | WSW 7.6 KM/H |
| 16:00 | Senin | 24.5° | 24.9° | 0% | 37% | WSW 7.9 KM/H |
| 17:00 | Senin | 24.6° | 25° | 0% | 37% | WSW 9 KM/H |
| 18:00 | 24.3° | 24.8° | 0% | 38% | WSW 7.2 KM/H | |
| 19:00 | Senin | 23.5° | 24.9° | 0% | 48% | WSW 5 KM/H |
| 20:00 | Senin | 21.4° | 21.4° | 0% | 51% | WSW 2.5 KM/H |
| 21:00 | Senin | 19.5° | 19.5° | 0% | 52% | SW 1.1 KM/H |
| 22:00 | Senin | 18.7° | 18.7° | 0% | 53% | SE 2.2 KM/H |
| 23:00 | Senin | 18.2° | 18.2° | 0% | 55% | ESE 5.8 KM/H |